sensor_id;sensor_type;location;lat;lon;timestamp;pressure;altitude;pressure_sealevel;temperature;humidity
72612;BME280;60655;52.182;4.474;2023-12-07T00:00:54;101890.13;;;1.97;100.00
72612;BME280;60655;52.182;4.474;2023-12-07T00:02:55;101899.91;;;1.95;100.00
72612;BME280;60655;52.182;4.474;2023-12-07T00:04:56;101891.31;;;1.83;100.00
72612;BME280;60655;52.182;4.474;2023-12-07T00:07:00;101896.88;;;1.90;100.00
72612;BME280;60655;52.182;4.474;2023-12-07T00:09:01;101886.09;;;1.83;100.00
72612;BME280;60655;52.182;4.474;2023-12-07T00:11:02;101891.63;;;1.90;100.00
72612;BME280;60655;52.182;4.474;2023-12-07T00:13:04;101886.34;;;1.80;100.00
72612;BME280;60655;52.182;4.474;2023-12-07T00:15:05;101885.03;;;1.95;100.00
72612;BME280;60655;52.182;4.474;2023-12-07T00:17:07;101883.72;;;1.80;100.00
72612;BME280;60655;52.182;4.474;2023-12-07T00:19:08;101875.31;;;1.77;100.00
72612;BME280;60655;52.182;4.474;2023-12-07T00:21:08;101885.38;;;1.72;100.00
72612;BME280;60655;52.182;4.474;2023-12-07T00:23:10;101876.84;;;1.79;100.00
72612;BME280;60655;52.182;4.474;2023-12-07T00:25:11;101890.88;;;1.78;100.00
72612;BME280;60655;52.182;4.474;2023-12-07T00:27:12;101879.31;;;1.71;100.00
72612;BME280;60655;52.182;4.474;2023-12-07T00:29:13;101866.81;;;1.54;100.00
72612;BME280;60655;52.182;4.474;2023-12-07T00:31:14;101875.41;;;1.65;100.00
72612;BME280;60655;52.182;4.474;2023-12-07T00:33:15;101879.31;;;1.81;100.00
72612;BME280;60655;52.182;4.474;2023-12-07T00:35:17;101875.94;;;1.59;100.00
72612;BME280;60655;52.182;4.474;2023-12-07T00:37:22;101883.22;;;1.56;100.00
72612;BME280;60655;52.182;4.474;2023-12-07T00:39:23;101874.81;;;1.52;100.00
72612;BME280;60655;52.182;4.474;2023-12-07T00:41:24;101871.84;;;1.36;100.00
72612;BME280;60655;52.182;4.474;2023-12-07T00:43:25;101867.56;;;1.35;100.00
72612;BME280;60655;52.182;4.474;2023-12-07T00:45:26;101888.34;;;1.27;100.00
72612;BME280;60655;52.182;4.474;2023-12-07T00:47:27;101879.06;;;1.44;100.00
72612;BME280;60655;52.182;4.474;2023-12-07T00:49:28;101888.25;;;1.38;100.00
72612;BME280;60655;52.182;4.474;2023-12-07T00:51:29;101896.50;;;1.33;100.00
72612;BME280;60655;52.182;4.474;2023-12-07T00:53:30;101891.53;;;1.30;100.00
72612;BME280;60655;52.182;4.474;2023-12-07T00:55:30;101886.66;;;1.26;100.00
72612;BME280;60655;52.182;4.474;2023-12-07T00:57:31;101884.28;;;1.13;100.00
72612;BME280;60655;52.182;4.474;2023-12-07T00:59:32;101874.34;;;1.17;100.00
72612;BME280;60655;52.182;4.474;2023-12-07T01:01:37;101881.75;;;1.32;100.00
72612;BME280;60655;52.182;4.474;2023-12-07T01:03:39;101882.78;;;1.20;100.00
72612;BME280;60655;52.182;4.474;2023-12-07T01:05:41;101883.28;;;1.35;100.00
72612;BME280;60655;52.182;4.474;2023-12-07T01:07:42;101880.03;;;1.22;100.00
72612;BME280;60655;52.182;4.474;2023-12-07T01:09:43;101888.66;;;1.33;100.00
72612;BME280;60655;52.182;4.474;2023-12-07T01:11:43;101891.44;;;1.42;100.00
72612;BME280;60655;52.182;4.474;2023-12-07T01:13:44;101888.19;;;1.28;100.00
72612;BME280;60655;52.182;4.474;2023-12-07T01:15:45;101881.94;;;1.20;100.00
72612;BME280;60655;52.182;4.474;2023-12-07T01:17:46;101876.59;;;1.21;100.00
72612;BME280;60655;52.182;4.474;2023-12-07T01:19:47;101888.47;;;1.25;100.00
72612;BME280;60655;52.182;4.474;2023-12-07T01:21:48;101886.94;;;1.23;100.00
72612;BME280;60655;52.182;4.474;2023-12-07T01:23:50;101884.97;;;1.15;100.00
72612;BME280;60655;52.182;4.474;2023-12-07T01:25:50;101894.03;;;1.11;100.00
72612;BME280;60655;52.182;4.474;2023-12-07T01:27:52;101890.34;;;1.14;100.00
72612;BME280;60655;52.182;4.474;2023-12-07T01:29:52;101886.56;;;1.07;100.00
72612;BME280;60655;52.182;4.474;2023-12-07T01:31:53;101891.84;;;1.16;100.00
72612;BME280;60655;52.182;4.474;2023-12-07T01:33:54;101873.63;;;1.05;100.00
72612;BME280;60655;52.182;4.474;2023-12-07T01:35:55;101881.34;;;1.07;100.00
72612;BME280;60655;52.182;4.474;2023-12-07T01:37:56;101890.03;;;1.07;100.00
72612;BME280;60655;52.182;4.474;2023-12-07T01:39:57;101892.84;;;1.15;100.00
72612;BME280;60655;52.182;4.474;2023-12-07T01:41:58;101880.88;;;1.22;100.00
72612;BME280;60655;52.182;4.474;2023-12-07T01:43:59;101886.09;;;1.22;100.00
72612;BME280;60655;52.182;4.474;2023-12-07T01:46:00;101879.59;;;1.38;100.00
72612;BME280;60655;52.182;4.474;2023-12-07T01:48:01;101882.31;;;1.36;100.00
72612;BME280;60655;52.182;4.474;2023-12-07T01:50:02;101875.88;;;1.19;100.00
72612;BME280;60655;52.182;4.474;2023-12-07T01:52:08;101877.72;;;1.28;100.00
72612;BME280;60655;52.182;4.474;2023-12-07T01:54:10;101876.78;;;1.29;100.00
72612;BME280;60655;52.182;4.474;2023-12-07T01:56:11;101883.59;;;1.21;100.00
72612;BME280;60655;52.182;4.474;2023-12-07T01:58:12;101882.53;;;1.23;100.00
72612;BME280;60655;52.182;4.474;2023-12-07T02:00:15;101880.28;;;1.19;100.00
72612;BME280;60655;52.182;4.474;2023-12-07T02:02:16;101876.00;;;1.18;100.00
72612;BME280;60655;52.182;4.474;2023-12-07T02:04:17;101880.41;;;1.17;100.00
72612;BME280;60655;52.182;4.474;2023-12-07T02:06:18;101886.94;;;1.23;100.00
72612;BME280;60655;52.182;4.474;2023-12-07T02:08:21;101887.50;;;1.26;100.00
72612;BME280;60655;52.182;4.474;2023-12-07T02:10:21;101869.78;;;1.09;100.00
72612;BME280;60655;52.182;4.474;2023-12-07T02:12:23;101883.09;;;1.27;100.00
72612;BME280;60655;52.182;4.474;2023-12-07T02:14:24;101879.97;;;1.33;100.00
72612;BME280;60655;52.182;4.474;2023-12-07T02:16:48;101877.72;;;1.28;100.00
72612;BME280;60655;52.182;4.474;2023-12-07T02:21:21;101882.50;;;1.14;100.00
72612;BME280;60655;52.182;4.474;2023-12-07T02:23:23;101877.13;;;1.15;100.00
72612;BME280;60655;52.182;4.474;2023-12-07T02:27:42;101892.41;;;1.20;100.00
72612;BME280;60655;52.182;4.474;2023-12-07T02:29:44;101884.19;;;1.24;100.00
72612;BME280;60655;52.182;4.474;2023-12-07T02:31:45;101874.09;;;1.20;100.00
72612;BME280;60655;52.182;4.474;2023-12-07T02:33:46;101888.47;;;1.25;100.00
72612;BME280;60655;52.182;4.474;2023-12-07T02:35:47;101885.72;;;1.27;100.00
72612;BME280;60655;52.182;4.474;2023-12-07T02:37:49;101888.59;;;1.24;100.00
72612;BME280;60655;52.182;4.474;2023-12-07T02:39:51;101887.91;;;1.01;100.00
72612;BME280;60655;52.182;4.474;2023-12-07T02:41:53;101882.50;;;1.14;100.00
72612;BME280;60655;52.182;4.474;2023-12-07T02:43:56;101881.13;;;1.19;100.00
72612;BME280;60655;52.182;4.474;2023-12-07T02:45:58;101886.31;;;1.10;100.00
72612;BME280;60655;52.182;4.474;2023-12-07T02:47:59;101875.03;;;1.09;100.00
72612;BME280;60655;52.182;4.474;2023-12-07T02:50:00;101882.78;;;1.20;100.00
72612;BME280;60655;52.182;4.474;2023-12-07T02:52:01;101888.47;;;1.25;100.00
72612;BME280;60655;52.182;4.474;2023-12-07T02:54:02;101883.16;;;1.16;100.00
72612;BME280;60655;52.182;4.474;2023-12-07T02:56:03;101882.06;;;1.18;100.00
72612;BME280;60655;52.182;4.474;2023-12-07T02:58:04;101888.97;;;1.19;100.00
72612;BME280;60655;52.182;4.474;2023-12-07T03:00:05;101871.97;;;1.04;100.00
72612;BME280;60655;52.182;4.474;2023-12-07T03:02:07;101897.28;;;1.24;100.00
72612;BME280;60655;52.182;4.474;2023-12-07T03:04:07;101897.00;;;1.27;100.00
72612;BME280;60655;52.182;4.474;2023-12-07T03:06:08;101895.59;;;1.23;100.00
72612;BME280;60655;52.182;4.474;2023-12-07T03:08:09;101902.63;;;1.23;100.00
72612;BME280;60655;52.182;4.474;2023-12-07T03:10:10;101884.97;;;1.15;100.00
72612;BME280;60655;52.182;4.474;2023-12-07T03:12:11;101897.34;;;1.34;100.00
72612;BME280;60655;52.182;4.474;2023-12-07T03:14:12;101899.25;;;1.32;100.00
72612;BME280;60655;52.182;4.474;2023-12-07T03:16:13;101886.75;;;1.45;100.00
72612;BME280;60655;52.182;4.474;2023-12-07T03:18:14;101884.88;;;1.57;100.00
72612;BME280;60655;52.182;4.474;2023-12-07T03:20:15;101881.09;;;1.71;100.00
72612;BME280;60655;52.182;4.474;2023-12-07T03:22:16;101877.66;;;1.80;100.00
72612;BME280;60655;52.182;4.474;2023-12-07T03:24:17;101882.25;;;1.87;100.00
72612;BME280;60655;52.182;4.474;2023-12-07T03:26:18;101876.44;;;1.84;100.00
72612;BME280;60655;52.182;4.474;2023-12-07T03:28:20;101877.84;;;1.88;100.00
72612;BME280;60655;52.182;4.474;2023-12-07T03:30:20;101880.84;;;1.83;100.00
72612;BME280;60655;52.182;4.474;2023-12-07T03:32:21;101848.56;;;1.73;100.00
72612;BME280;60655;52.182;4.474;2023-12-07T03:34:22;101867.22;;;1.89;100.00
72612;BME280;60655;52.182;4.474;2023-12-07T03:36:23;101872.63;;;1.97;100.00
72612;BME280;60655;52.182;4.474;2023-12-07T03:38:24;101866.63;;;1.76;100.00
72612;BME280;60655;52.182;4.474;2023-12-07T03:40:25;101868.00;;;1.80;100.00
72612;BME280;60655;52.182;4.474;2023-12-07T03:42:26;101871.38;;;1.92;100.00
72612;BME280;60655;52.182;4.474;2023-12-07T03:44:27;101882.25;;;1.87;100.00
72612;BME280;60655;52.182;4.474;2023-12-07T03:46:28;101867.22;;;1.89;100.00
72612;BME280;60655;52.182;4.474;2023-12-07T03:48:29;101867.66;;;1.94;100.00
72612;BME280;60655;52.182;4.474;2023-12-07T03:50:30;101866.13;;;1.92;100.00
72612;BME280;60655;52.182;4.474;2023-12-07T03:52:31;101869.56;;;1.92;100.00
72612;BME280;60655;52.182;4.474;2023-12-07T03:54:32;101868.75;;;1.92;100.00
72612;BME280;60655;52.182;4.474;2023-12-07T03:56:33;101865.69;;;1.87;100.00
72612;BME280;60655;52.182;4.474;2023-12-07T03:58:34;101861.16;;;1.89;100.00
72612;BME280;60655;52.182;4.474;2023-12-07T04:00:35;101866.16;;;2.01;100.00
72612;BME280;60655;52.182;4.474;2023-12-07T04:02:36;101866.00;;;2.03;100.00
72612;BME280;60655;52.182;4.474;2023-12-07T04:04:37;101865.47;;;1.99;100.00
72612;BME280;60655;52.182;4.474;2023-12-07T04:06:39;101868.78;;;2.11;100.00
72612;BME280;60655;52.182;4.474;2023-12-07T04:08:40;101864.75;;;2.07;100.00
72612;BME280;60655;52.182;4.474;2023-12-07T04:10:41;101873.22;;;2.20;100.00
72612;BME280;60655;52.182;4.474;2023-12-07T04:12:41;101867.41;;;2.17;100.00
72612;BME280;60655;52.182;4.474;2023-12-07T04:14:42;101877.22;;;2.24;100.00
72612;BME280;60655;52.182;4.474;2023-12-07T04:16:43;101872.13;;;2.23;100.00
72612;BME280;60655;52.182;4.474;2023-12-07T04:18:44;101868.53;;;2.24;100.00
72612;BME280;60655;52.182;4.474;2023-12-07T04:20:45;101858.44;;;2.19;100.00
72612;BME280;60655;52.182;4.474;2023-12-07T04:22:46;101858.03;;;2.24;100.00
72612;BME280;60655;52.182;4.474;2023-12-07T04:24:47;101864.25;;;2.23;100.00
72612;BME280;60655;52.182;4.474;2023-12-07T04:26:48;101868.78;;;2.21;100.00
72612;BME280;60655;52.182;4.474;2023-12-07T04:28:49;101863.41;;;2.13;100.00
72612;BME280;60655;52.182;4.474;2023-12-07T04:30:50;101857.19;;;2.14;100.00
72612;BME280;60655;52.182;4.474;2023-12-07T04:32:51;101857.19;;;2.14;100.00
72612;BME280;60655;52.182;4.474;2023-12-07T04:34:52;101848.06;;;2.08;100.00
72612;BME280;60655;52.182;4.474;2023-12-07T04:36:54;101856.06;;;2.07;100.00
72612;BME280;60655;52.182;4.474;2023-12-07T04:38:55;101853.19;;;2.10;100.00
72612;BME280;60655;52.182;4.474;2023-12-07T04:40:56;101849.31;;;2.14;100.00
72612;BME280;60655;52.182;4.474;2023-12-07T04:42:57;101860.63;;;2.14;100.00
72612;BME280;60655;52.182;4.474;2023-12-07T04:44:58;101855.66;;;2.11;100.00
72612;BME280;60655;52.182;4.474;2023-12-07T04:46:59;101853.31;;;2.08;100.00
72612;BME280;60655;52.182;4.474;2023-12-07T04:49:00;101859.66;;;2.06;100.00
72612;BME280;60655;52.182;4.474;2023-12-07T04:51:01;101860.47;;;2.06;100.00
72612;BME280;60655;52.182;4.474;2023-12-07T04:53:01;101849.47;;;2.12;100.00
72612;BME280;60655;52.182;4.474;2023-12-07T04:55:03;101855.66;;;2.01;100.00
72612;BME280;60655;52.182;4.474;2023-12-07T04:57:06;101860.34;;;2.08;100.00
72612;BME280;60655;52.182;4.474;2023-12-07T04:59:09;101862.53;;;2.02;100.00
72612;BME280;60655;52.182;4.474;2023-12-07T05:01:10;101864.38;;;2.02;100.00
72612;BME280;60655;52.182;4.474;2023-12-07T05:03:11;101859.66;;;1.96;100.00
72612;BME280;60655;52.182;4.474;2023-12-07T05:05:11;101862.53;;;1.93;100.00
72612;BME280;60655;52.182;4.474;2023-12-07T05:07:13;101860.22;;;1.99;100.00
72612;BME280;60655;52.182;4.474;2023-12-07T05:09:14;101861.75;;;2.02;100.00
72612;BME280;60655;52.182;4.474;2023-12-07T05:11:16;101861.31;;;2.07;100.00
72612;BME280;60655;52.182;4.474;2023-12-07T05:13:16;101859.91;;;2.02;100.00
72612;BME280;60655;52.182;4.474;2023-12-07T05:15:18;101853.72;;;2.03;100.00
72612;BME280;60655;52.182;4.474;2023-12-07T05:17:18;101854.97;;;1.99;100.00
72612;BME280;60655;52.182;4.474;2023-12-07T05:19:20;101856.22;;;1.95;100.00
72612;BME280;60655;52.182;4.474;2023-12-07T05:21:21;101856.75;;;2.09;100.00
72612;BME280;60655;52.182;4.474;2023-12-07T05:23:22;101842.00;;;1.98;100.00
72612;BME280;60655;52.182;4.474;2023-12-07T05:25:23;101848.22;;;1.97;100.00
72612;BME280;60655;52.182;4.474;2023-12-07T05:27:24;101850.81;;;1.87;100.00
72612;BME280;60655;52.182;4.474;2023-12-07T05:29:25;101853.16;;;1.90;100.00
72612;BME280;60655;52.182;4.474;2023-12-07T05:31:26;101839.59;;;1.76;100.00
72612;BME280;60655;52.182;4.474;2023-12-07T05:33:27;101847.44;;;1.76;100.00
72612;BME280;60655;52.182;4.474;2023-12-07T05:35:28;101840.41;;;1.76;100.00
72612;BME280;60655;52.182;4.474;2023-12-07T05:37:29;101836.84;;;1.67;100.00
72612;BME280;60655;52.182;4.474;2023-12-07T05:39:30;101847.31;;;1.67;100.00
72612;BME280;60655;52.182;4.474;2023-12-07T05:41:31;101841.06;;;1.59;100.00
72612;BME280;60655;52.182;4.474;2023-12-07T05:43:32;101852.78;;;1.55;100.00
72612;BME280;60655;52.182;4.474;2023-12-07T05:45:34;101824.09;;;1.44;100.00
72612;BME280;60655;52.182;4.474;2023-12-07T05:47:35;101842.69;;;1.50;100.00
72612;BME280;60655;52.182;4.474;2023-12-07T05:49:36;101832.09;;;1.52;100.00
72612;BME280;60655;52.182;4.474;2023-12-07T05:51:37;101830.41;;;1.41;100.00
72612;BME280;60655;52.182;4.474;2023-12-07T05:53:38;101839.09;;;1.51;100.00
72612;BME280;60655;52.182;4.474;2023-12-07T05:55:39;101837.00;;;1.45;100.00
72612;BME280;60655;52.182;4.474;2023-12-07T05:57:40;101833.03;;;1.41;100.00
72612;BME280;60655;52.182;4.474;2023-12-07T05:59:41;101834.59;;;1.23;100.00
72612;BME280;60655;52.182;4.474;2023-12-07T06:01:43;101839.56;;;1.26;100.00
72612;BME280;60655;52.182;4.474;2023-12-07T06:03:44;101841.41;;;1.35;100.00
72612;BME280;60655;52.182;4.474;2023-12-07T06:05:45;101841.78;;;1.30;100.00
72612;BME280;60655;52.182;4.474;2023-12-07T06:07:47;101839.56;;;1.26;100.00
72612;BME280;60655;52.182;4.474;2023-12-07T06:09:48;101848.50;;;1.23;100.00
72612;BME280;60655;52.182;4.474;2023-12-07T06:11:49;101849.31;;;1.24;100.00
72612;BME280;60655;52.182;4.474;2023-12-07T06:13:50;101835.91;;;1.08;100.00
72612;BME280;60655;52.182;4.474;2023-12-07T06:15:51;101849.56;;;1.11;100.00
72612;BME280;60655;52.182;4.474;2023-12-07T06:17:52;101848.03;;;1.09;100.00
72612;BME280;60655;52.182;4.474;2023-12-07T06:19:52;101849.13;;;1.16;100.00
72612;BME280;60655;52.182;4.474;2023-12-07T06:21:53;101837.44;;;1.10;100.00
72612;BME280;60655;52.182;4.474;2023-12-07T06:23:54;101832.88;;;0.82;100.00
72612;BME280;60655;52.182;4.474;2023-12-07T06:25:55;101857.22;;;1.03;100.00
72612;BME280;60655;52.182;4.474;2023-12-07T06:27:56;101855.69;;;1.00;100.00
72612;BME280;60655;52.182;4.474;2023-12-07T06:29:57;101858.75;;;1.06;100.00
72612;BME280;60655;52.182;4.474;2023-12-07T06:31:58;101861.69;;;1.12;100.00
72612;BME280;60655;52.182;4.474;2023-12-07T06:33:59;101853.38;;;1.07;100.00
72612;BME280;60655;52.182;4.474;2023-12-07T06:36:01;101847.13;;;0.98;100.00
72612;BME280;60655;52.182;4.474;2023-12-07T06:38:03;101845.09;;;1.02;100.00
72612;BME280;60655;52.182;4.474;2023-12-07T06:40:06;101828.22;;;0.85;100.00
72612;BME280;60655;52.182;4.474;2023-12-07T06:42:09;101832.78;;;0.93;100.00
72612;BME280;60655;52.182;4.474;2023-12-07T06:44:10;101853.13;;;1.10;100.00
72612;BME280;60655;52.182;4.474;2023-12-07T06:46:12;101846.25;;;1.09;100.00
72612;BME280;60655;52.182;4.474;2023-12-07T06:48:13;101841.66;;;1.01;100.00
72612;BME280;60655;52.182;4.474;2023-12-07T06:50:14;101827.28;;;0.96;100.00
72612;BME280;60655;52.182;4.474;2023-12-07T06:52:15;101852.25;;;1.00;100.00
72612;BME280;60655;52.182;4.474;2023-12-07T06:54:16;101854.03;;;0.99;100.00
72612;BME280;60655;52.182;4.474;2023-12-07T06:56:17;101838.00;;;0.93;100.00
72612;BME280;60655;52.182;4.474;2023-12-07T06:58:18;101854.34;;;1.06;100.00
72612;BME280;60655;52.182;4.474;2023-12-07T07:00:19;101853.38;;;1.07;100.00
72612;BME280;60655;52.182;4.474;2023-12-07T07:02:20;101827.28;;;0.96;100.00
72612;BME280;60655;52.182;4.474;2023-12-07T07:04:21;101850.91;;;1.06;100.00
72612;BME280;60655;52.182;4.474;2023-12-07T07:06:22;101854.16;;;0.98;100.00
72612;BME280;60655;52.182;4.474;2023-12-07T07:08:23;101856.91;;;0.96;100.00
72612;BME280;60655;52.182;4.474;2023-12-07T07:10:24;101853.69;;;0.93;100.00
72612;BME280;60655;52.182;4.474;2023-12-07T07:12:25;101847.72;;;1.02;100.00
72612;BME280;60655;52.182;4.474;2023-12-07T07:14:26;101849.56;;;1.11;100.00
72612;BME280;60655;52.182;4.474;2023-12-07T07:16:27;101854.13;;;1.19;100.00
72612;BME280;60655;52.182;4.474;2023-12-07T07:18:28;101860.03;;;1.11;100.00
72612;BME280;60655;52.182;4.474;2023-12-07T07:20:30;101858.09;;;1.13;100.00
72612;BME280;60655;52.182;4.474;2023-12-07T07:22:31;101844.25;;;1.01;100.00
72612;BME280;60655;52.182;4.474;2023-12-07T07:24:32;101843.50;;;0.90;100.00
72612;BME280;60655;52.182;4.474;2023-12-07T07:26:32;101840.47;;;0.85;100.00
72612;BME280;60655;52.182;4.474;2023-12-07T07:28:33;101834.06;;;0.78;100.00
72612;BME280;60655;52.182;4.474;2023-12-07T07:30:35;101849.38;;;0.82;100.00
72612;BME280;60655;52.182;4.474;2023-12-07T07:32:36;101825.91;;;0.71;100.00
72612;BME280;60655;52.182;4.474;2023-12-07T07:34:37;101851.16;;;0.82;100.00
72612;BME280;60655;52.182;4.474;2023-12-07T07:36:38;101820.53;;;0.52;100.00
72612;BME280;60655;52.182;4.474;2023-12-07T07:38:39;101846.88;;;0.60;100.00
72612;BME280;60655;52.182;4.474;2023-12-07T07:40:40;101841.75;;;0.58;100.00
72612;BME280;60655;52.182;4.474;2023-12-07T07:42:42;101855.88;;;0.67;100.00
72612;BME280;60655;52.182;4.474;2023-12-07T07:44:43;101856.53;;;0.80;100.00
72612;BME280;60655;52.182;4.474;2023-12-07T07:46:44;101861.88;;;0.79;100.00
72612;BME280;60655;52.182;4.474;2023-12-07T07:48:45;101864.66;;;0.66;100.00
72612;BME280;60655;52.182;4.474;2023-12-07T07:50:46;101863.53;;;0.80;100.00
72612;BME280;60655;52.182;4.474;2023-12-07T07:52:47;101863.53;;;0.80;100.00
72612;BME280;60655;52.182;4.474;2023-12-07T07:54:48;101846.56;;;0.74;100.00
72612;BME280;60655;52.182;4.474;2023-12-07T07:56:49;101847.03;;;0.79;100.00
72612;BME280;60655;52.182;4.474;2023-12-07T07:58:50;101845.16;;;0.91;100.00
72612;BME280;60655;52.182;4.474;2023-12-07T08:00:51;101850.13;;;0.94;100.00
72612;BME280;60655;52.182;4.474;2023-12-07T08:02:52;101845.28;;;0.89;100.00
72612;BME280;60655;52.182;4.474;2023-12-07T08:04:53;101859.81;;;1.03;100.00
72612;BME280;60655;52.182;4.474;2023-12-07T08:06:54;101859.25;;;0.99;100.00
72612;BME280;60655;52.182;4.474;2023-12-07T08:08:55;101856.25;;;1.04;100.00
72612;BME280;60655;52.182;4.474;2023-12-07T08:10:56;101860.66;;;1.04;100.00
72612;BME280;60655;52.182;4.474;2023-12-07T08:12:57;101855.34;;;0.94;100.00
72612;BME280;60655;52.182;4.474;2023-12-07T08:14:58;101862.56;;;1.01;100.00
72612;BME280;60655;52.182;4.474;2023-12-07T08:16:59;101855.69;;;1.00;100.00
72612;BME280;60655;52.182;4.474;2023-12-07T08:19:00;101863.41;;;1.02;100.00
72612;BME280;60655;52.182;4.474;2023-12-07T08:21:01;101867.88;;;1.11;100.00
72612;BME280;60655;52.182;4.474;2023-12-07T08:23:02;101858.88;;;1.04;100.00
72612;BME280;60655;52.182;4.474;2023-12-07T08:25:03;101845.84;;;1.14;100.00
72612;BME280;60655;52.182;4.474;2023-12-07T08:27:06;101859.28;;;1.30;100.00
72612;BME280;60655;52.182;4.474;2023-12-07T08:29:06;101848.38;;;1.25;100.00
72612;BME280;60655;52.182;4.474;2023-12-07T08:31:07;101854.34;;;1.37;100.00
72612;BME280;60655;52.182;4.474;2023-12-07T08:33:09;101859.22;;;1.51;100.00
72612;BME280;60655;52.182;4.474;2023-12-07T08:35:09;101854.50;;;1.45;100.00
72612;BME280;60655;52.182;4.474;2023-12-07T08:37:10;101845.81;;;1.34;100.00
72612;BME280;60655;52.182;4.474;2023-12-07T08:39:11;101853.66;;;1.34;100.00
72612;BME280;60655;52.182;4.474;2023-12-07T08:41:12;101847.72;;;1.32;100.00
72612;BME280;60655;52.182;4.474;2023-12-07T08:43:13;101855.88;;;1.39;100.00
72612;BME280;60655;52.182;4.474;2023-12-07T08:45:14;101828.63;;;1.42;100.00
72612;BME280;60655;52.182;4.474;2023-12-07T08:47:15;101832.84;;;1.33;100.00
72612;BME280;60655;52.182;4.474;2023-12-07T08:49:16;101821.19;;;1.16;100.00
72612;BME280;60655;52.182;4.474;2023-12-07T08:51:17;101827.34;;;1.36;100.00
72612;BME280;60655;52.182;4.474;2023-12-07T08:53:18;101825.97;;;1.32;100.00
72612;BME280;60655;52.182;4.474;2023-12-07T08:55:19;101832.34;;;1.39;100.00
72612;BME280;60655;52.182;4.474;2023-12-07T08:57:20;101834.56;;;1.44;100.00
72612;BME280;60655;52.182;4.474;2023-12-07T08:59:21;101828.50;;;1.43;100.00
72612;BME280;60655;52.182;4.474;2023-12-07T09:01:22;101823.78;;;1.47;100.00
72612;BME280;60655;52.182;4.474;2023-12-07T09:03:23;101817.06;;;1.44;100.00
72612;BME280;60655;52.182;4.474;2023-12-07T09:05:28;101818.66;;;1.35;100.00
72612;BME280;60655;52.182;4.474;2023-12-07T09:07:29;101818.97;;;1.42;100.00
72612;BME280;60655;52.182;4.474;2023-12-07T09:09:30;101819.94;;;1.41;100.00
72612;BME280;60655;52.182;4.474;2023-12-07T09:11:30;101827.38;;;1.46;100.00
72612;BME280;60655;52.182;4.474;2023-12-07T09:13:33;101815.63;;;1.30;100.00
72612;BME280;60655;52.182;4.474;2023-12-07T09:15:34;101832.47;;;1.38;100.00
72612;BME280;60655;52.182;4.474;2023-12-07T09:17:41;101825.44;;;1.38;100.00
72612;BME280;60655;52.182;4.474;2023-12-07T09:19:44;101834.69;;;1.42;100.00
72612;BME280;60655;52.182;4.474;2023-12-07T09:21:45;101833.75;;;1.53;100.00
72612;BME280;60655;52.182;4.474;2023-12-07T09:23:46;101826.84;;;1.52;100.00
72612;BME280;60655;52.182;4.474;2023-12-07T09:25:47;101835.09;;;1.47;100.00
72612;BME280;60655;52.182;4.474;2023-12-07T09:27:48;101830.16;;;1.44;100.00
72612;BME280;60655;52.182;4.474;2023-12-07T09:29:49;101823.38;;;1.42;100.00
72612;BME280;60655;52.182;4.474;2023-12-07T09:31:51;101818.28;;;1.50;100.00
72612;BME280;60655;52.182;4.474;2023-12-07T09:33:52;101824.34;;;1.50;100.00
72612;BME280;60655;52.182;4.474;2023-12-07T09:35:54;101806.28;;;1.47;100.00
72612;BME280;60655;52.182;4.474;2023-12-07T09:37:55;101810.78;;;1.66;100.00
72612;BME280;60655;52.182;4.474;2023-12-07T09:39:56;101808.56;;;1.61;100.00
72612;BME280;60655;52.182;4.474;2023-12-07T09:41:58;101803.63;;;1.68;100.00
72612;BME280;60655;52.182;4.474;2023-12-07T09:43:59;101801.13;;;1.66;100.00
72612;BME280;60655;52.182;4.474;2023-12-07T09:46:01;101801.25;;;1.65;100.00
72612;BME280;60655;52.182;4.474;2023-12-07T09:48:02;101793.97;;;1.68;100.00
72612;BME280;60655;52.182;4.474;2023-12-07T09:50:06;101796.84;;;1.75;100.00
72612;BME280;60655;52.182;4.474;2023-12-07T09:52:08;101793.41;;;1.75;100.00
72612;BME280;60655;52.182;4.474;2023-12-07T09:54:09;101791.34;;;1.78;100.00
72612;BME280;60655;52.182;4.474;2023-12-07T09:56:11;101791.25;;;1.89;100.00
72612;BME280;60655;52.182;4.474;2023-12-07T09:58:12;101780.19;;;1.86;100.00
72612;BME280;60655;52.182;4.474;2023-12-07T10:00:13;101771.09;;;1.90;100.00
72612;BME280;60655;52.182;4.474;2023-12-07T10:02:18;101768.78;;;1.96;100.00
72612;BME280;60655;52.182;4.474;2023-12-07T10:04:20;101773.88;;;1.98;100.00
72612;BME280;60655;52.182;4.474;2023-12-07T10:06:23;101772.66;;;2.02;100.00
72612;BME280;60655;52.182;4.474;2023-12-07T10:08:29;101768.91;;;2.04;100.00
72612;BME280;60655;52.182;4.474;2023-12-07T10:10:30;101776.50;;;1.98;100.00
72612;BME280;60655;52.182;4.474;2023-12-07T10:12:32;101773.47;;;1.93;100.00
72612;BME280;60655;52.182;4.474;2023-12-07T10:14:35;101778.69;;;2.02;100.00
72612;BME280;60655;52.182;4.474;2023-12-07T10:16:37;101777.72;;;2.03;100.00
72612;BME280;60655;52.182;4.474;2023-12-07T10:18:38;101776.06;;;1.93;100.00
72612;BME280;60655;52.182;4.474;2023-12-07T10:20:45;101777.31;;;1.98;100.00
72612;BME280;60655;52.182;4.474;2023-12-07T10:22:46;101779.81;;;2.00;100.00
72612;BME280;60655;52.182;4.474;2023-12-07T10:24:48;101768.63;;;1.98;100.00
72612;BME280;60655;52.182;4.474;2023-12-07T10:26:49;101771.00;;;2.01;100.00
72612;BME280;60655;52.182;4.474;2023-12-07T10:28:50;101760.34;;;2.12;100.00
72612;BME280;60655;52.182;4.474;2023-12-07T10:30:54;101766.16;;;2.25;100.00
72612;BME280;60655;52.182;4.474;2023-12-07T10:32:57;101755.38;;;2.09;100.00
72612;BME280;60655;52.182;4.474;2023-12-07T10:34:58;101744.63;;;2.12;100.00
72612;BME280;60655;52.182;4.474;2023-12-07T10:37:01;101754.56;;;2.18;100.00
72612;BME280;60655;52.182;4.474;2023-12-07T10:39:05;101749.03;;;2.21;100.00